Time;durP1;ratioP1;P1;durP2;ratioP2;P2;SDS_P1;SDS_P2;PMS_P1;PMS_P2;Temp;Humidity;BMP_temperature;BMP_pressure;BME280_temperature;BME280_humidity;BME280_pressure;Samples;Min_cycle;Max_cycle;Signal;HPM_P1;HPM_P2
2022/08/17 00:00:45;;;;;;;4.63;3.05;;;18.50;99.90;;;;;;6302335;22;20402;-86
2022/08/17 00:03:21;;;;;;;5.43;3.20;;;18.50;99.90;;;;;;6302415;22;20003;-86
2022/08/17 00:05:49;;;;;;;5.22;3.30;;;18.50;99.90;;;;;;6302237;22;20041;-86
2022/08/17 00:08:18;;;;;;;10.45;3.58;;;18.50;99.90;;;;;;6302217;22;20070;-87
2022/08/17 00:10:45;;;;;;;7.85;3.17;;;18.50;99.90;;;;;;6303428;22;20086;-88
2022/08/17 00:13:19;;;;;;;12.10;3.27;;;18.40;99.90;;;;;;6304558;22;20007;-88
2022/08/17 00:15:45;;;;;;;5.30;3.50;;;18.40;99.90;;;;;;6304346;22;20714;-86
2022/08/17 00:18:11;;;;;;;6.40;3.20;;;18.40;99.90;;;;;;6304376;22;19999;-87
2022/08/17 00:20:37;;;;;;;6.60;3.50;;;18.40;99.90;;;;;;6304240;22;20021;-86
2022/08/17 00:23:13;;;;;;;10.07;3.80;;;18.30;99.90;;;;;;6304492;22;20053;-85
2022/08/17 00:25:41;;;;;;;6.95;3.65;;;18.30;99.90;;;;;;6304379;22;20011;-87
2022/08/17 00:28:07;;;;;;;6.05;3.38;;;18.20;99.90;;;;;;6276875;22;20003;-87
2022/08/17 00:30:34;;;;;;;4.70;3.45;;;18.40;99.90;;;;;;6304198;22;20003;-87
2022/08/17 00:33:10;;;;;;;5.85;3.30;;;18.10;99.90;;;;;;6305283;22;19999;-85
2022/08/17 00:35:37;;;;;;;10.10;3.70;;;18.10;99.90;;;;;;6304337;22;20057;-86
2022/08/17 00:38:05;;;;;;;7.53;3.45;;;18.10;99.90;;;;;;6304394;22;20006;-87
2022/08/17 00:40:31;;;;;;;7.90;3.60;;;18.10;99.90;;;;;;6305173;22;20004;-87
2022/08/17 00:43:08;;;;;;;5.28;3.55;;;18.00;99.90;;;;;;6277686;22;20007;-86
2022/08/17 00:45:34;;;;;;;4.47;4.07;;;17.90;99.90;;;;;;6304163;22;20015;-87
2022/08/17 00:47:59;;;;;;;4.03;3.60;;;17.90;99.90;;;;;;6277362;22;20014;-88
2022/08/17 00:50:25;;;;;;;9.25;3.40;;;17.80;99.90;;;;;;6304171;22;20011;-84
2022/08/17 00:52:56;;;;;;;5.72;3.33;;;17.90;99.90;;;;;;6304117;22;20341;-87
2022/08/17 00:55:24;;;;;;;3.35;3.05;;;17.80;99.90;;;;;;6303940;22;20233;-86
2022/08/17 00:57:52;;;;;;;3.88;3.33;;;17.70;99.90;;;;;;6303941;22;20309;-87
2022/08/17 01:00:25;;;;;;;6.30;3.85;;;17.70;99.90;;;;;;6276315;22;20057;-86
2022/08/17 01:02:56;;;;;;;3.50;3.20;;;17.60;99.90;;;;;;6304068;22;20003;-87
2022/08/17 01:05:25;;;;;;;7.80;3.80;;;17.60;99.90;;;;;;6303957;22;20531;-87
2022/08/17 01:07:52;;;;;;;5.80;3.70;;;17.60;99.90;;;;;;6303871;22;20000;-87
2022/08/17 01:10:25;;;;;;;6.60;4.47;;;17.60;99.90;;;;;;6303709;22;19999;-87
2022/08/17 01:12:51;;;;;;;7.13;3.92;;;17.60;99.90;;;;;;6303604;22;19999;-86
2022/08/17 01:15:17;;;;;;;6.38;3.90;;;17.70;99.90;;;;;;6304194;22;20010;-86
2022/08/17 01:17:44;;;;;;;6.45;3.50;;;17.70;99.90;;;;;;6303839;22;19999;-85
2022/08/17 01:20:10;;;;;;;7.57;3.67;;;17.70;99.90;;;;;;6303900;22;20026;-88
2022/08/17 01:22:36;;;;;;;3.80;3.50;;;17.70;99.90;;;;;;6302989;22;20424;-87
2022/08/17 01:25:06;;;;;;;5.63;3.50;;;17.60;99.90;;;;;;6304839;22;20459;-86
2022/08/17 01:27:34;;;;;;;4.38;3.45;;;17.60;99.90;;;;;;6304799;22;20008;-87
2022/08/17 01:30:05;;;;;;;3.88;3.17;;;17.60;99.90;;;;;;6277412;22;20010;-88
2022/08/17 01:32:30;;;;;;;6.18;3.75;;;17.60;99.90;;;;;;6304813;22;20006;-87
2022/08/17 01:34:59;;;;;;;5.55;3.70;;;17.60;99.90;;;;;;6303559;22;20027;-85
2022/08/17 01:37:39;;;;;;;5.13;3.60;;;17.50;99.90;;;;;;6303509;22;20083;-87
2022/08/17 01:40:13;;;;;;;4.20;3.80;;;17.50;99.90;;;;;;6303439;22;20309;-83
2022/08/17 01:42:50;;;;;;;4.10;3.70;;;17.50;99.90;;;;;;6303815;22;20010;-88
2022/08/17 01:45:29;;;;;;;7.97;3.90;;;17.40;99.90;;;;;;6303360;22;20011;-85
2022/08/17 01:47:55;;;;;;;6.07;3.80;;;17.40;99.90;;;;;;6303375;22;20260;-87
2022/08/17 01:50:25;;;;;;;6.72;3.72;;;17.40;99.90;;;;;;6275904;22;20010;-85
2022/08/17 01:52:58;;;;;;;9.35;3.65;;;17.40;99.90;;;;;;6303666;22;20003;-88
2022/08/17 01:55:32;;;;;;;8.10;3.67;;;17.50;99.90;;;;;;6303544;22;20003;-87
2022/08/17 01:57:58;;;;;;;6.85;3.50;;;17.50;99.90;;;;;;6303506;22;20454;-88
2022/08/17 02:00:24;;;;;;;5.93;3.55;;;17.50;99.90;;;;;;6275823;22;20003;-86
2022/08/17 02:02:50;;;;;;;8.00;4.10;;;17.50;99.90;;;;;;6303151;22;20037;-88
2022/08/17 02:05:16;;;;;;;5.13;3.80;;;17.50;99.90;;;;;;6275826;22;20049;-87
2022/08/17 02:07:42;;;;;;;6.03;4.20;;;17.40;99.90;;;;;;6303333;22;20394;-87
2022/08/17 02:10:08;;;;;;;9.02;4.00;;;17.40;99.90;;;;;;6303923;22;19999;-88
2022/08/17 02:12:35;;;;;;;4.13;3.72;;;17.30;99.90;;;;;;6306040;22;20070;-87
2022/08/17 02:15:01;;;;;;;6.43;4.15;;;17.30;99.90;;;;;;6305588;22;20010;-85
2022/08/17 02:17:27;;;;;;;5.43;3.65;;;17.20;99.90;;;;;;6276352;22;20035;-86
2022/08/17 02:19:53;;;;;;;5.32;3.67;;;17.20;99.90;;;;;;6303828;22;20428;-85
2022/08/17 02:22:18;;;;;;;5.05;3.55;;;17.10;99.90;;;;;;6303334;22;20000;-88
2022/08/17 02:24:45;;;;;;;4.88;3.92;;;17.10;99.90;;;;;;6303024;22;19999;-87
2022/08/17 02:27:10;;;;;;;8.43;3.75;;;17.10;99.90;;;;;;6303024;22;20064;-86
2022/08/17 02:29:36;;;;;;;6.18;3.42;;;17.10;99.90;;;;;;6303897;22;20000;-86
2022/08/17 02:32:03;;;;;;;4.28;3.47;;;17.20;99.90;;;;;;6303773;22;20465;-85
2022/08/17 02:34:31;;;;;;;4.20;3.75;;;17.00;99.90;;;;;;6302955;22;19999;-87
2022/08/17 02:36:57;;;;;;;3.63;3.33;;;17.00;99.90;;;;;;6303077;22;20439;-87
2022/08/17 02:39:22;;;;;;;9.80;3.60;;;16.90;99.90;;;;;;6303077;22;20003;-84
2022/08/17 02:41:48;;;;;;;6.18;3.70;;;17.00;99.90;;;;;;6302940;22;20067;-86
2022/08/17 02:44:14;;;;;;;5.03;3.38;;;16.90;99.90;;;;;;6302748;22;20003;-87
2022/08/17 02:46:39;;;;;;;4.90;3.05;;;16.90;99.90;;;;;;6275288;22;20500;-86
2022/08/17 02:49:05;;;;;;;4.10;2.63;;;16.90;99.90;;;;;;6303916;22;20003;-85
2022/08/17 02:51:31;;;;;;;4.50;3.03;;;16.90;99.90;;;;;;6303268;22;20000;-87
2022/08/17 02:53:56;;;;;;;3.22;2.90;;;17.50;99.90;;;;;;6275419;22;20014;-88
2022/08/17 02:56:22;;;;;;;5.72;3.08;;;16.90;99.90;;;;;;6302747;22;20010;-86
2022/08/17 02:58:48;;;;;;;4.95;2.70;;;16.90;99.90;;;;;;6302685;22;20343;-87
2022/08/17 03:01:14;;;;;;;4.32;2.50;;;16.80;99.90;;;;;;6302644;22;19999;-85
2022/08/17 03:03:39;;;;;;;3.35;2.95;;;16.80;99.90;;;;;;6302935;22;20340;-83
2022/08/17 03:06:06;;;;;;;5.97;2.90;;;16.80;99.90;;;;;;6303696;22;20011;-87
2022/08/17 03:08:32;;;;;;;4.63;2.83;;;16.70;99.90;;;;;;6275622;22;20007;-88
2022/08/17 03:10:58;;;;;;;4.32;3.10;;;16.70;99.90;;;;;;6302578;22;20003;-86
2022/08/17 03:13:25;;;;;;;5.90;3.00;;;16.70;99.90;;;;;;6302655;22;19995;-86
2022/08/17 03:15:50;;;;;;;5.45;3.65;;;16.70;99.90;;;;;;6302439;22;20007;-86
2022/08/17 03:18:19;;;;;;;3.65;3.35;;;16.70;99.90;;;;;;6302757;22;20054;-87
2022/08/17 03:20:44;;;;;;;;;;;16.70;99.90;;;;;;6303183;22;20003;-85
2022/08/17 03:23:12;;;;;;;4.15;3.75;;;16.70;99.90;;;;;;6302596;22;19941;-83
2022/08/17 03:25:41;;;;;;;5.63;3.63;;;16.70;99.90;;;;;;6303514;22;20011;-87
2022/08/17 03:28:08;;;;;;;3.80;3.50;;;16.60;99.90;;;;;;6276036;22;20010;-87
2022/08/17 03:30:34;;;;;;;4.18;3.78;;;16.70;99.90;;;;;;6302648;22;19999;-87
2022/08/17 03:33:02;;;;;;;3.78;3.47;;;16.70;99.90;;;;;;6302456;22;20007;-84
2022/08/17 03:35:30;;;;;;;4.95;4.15;;;16.70;99.90;;;;;;6302686;22;20000;-87
2022/08/17 03:37:57;;;;;;;8.88;4.13;;;16.70;99.90;;;;;;6302588;22;20435;-87
2022/08/17 03:40:23;;;;;;;4.43;3.97;;;16.70;99.90;;;;;;6302280;22;20448;-87
2022/08/17 03:42:52;;;;;;;5.43;4.10;;;16.70;99.90;;;;;;6302266;22;20006;-87
2022/08/17 03:56:41;;;;;;;5.57;4.88;;;16.80;99.90;;;;;;6274570;22;20064;-87
2022/08/17 03:56:42;;;;;;;5.32;4.45;;;16.80;99.90;;;;;;6303415;22;20111;-86
2022/08/17 03:59:19;;;;;;;7.40;4.37;;;16.80;99.90;;;;;;6276040;22;20003;-88
2022/08/17 04:01:48;;;;;;;5.93;3.93;;;16.80;99.90;;;;;;6302265;22;20007;-87
2022/08/17 04:04:14;;;;;;;8.73;4.57;;;16.80;99.90;;;;;;6302146;22;20053;-87
2022/08/17 04:06:40;;;;;;;10.57;5.28;;;16.90;99.90;;;;;;6303243;22;20003;-87
2022/08/17 04:09:07;;;;;;;5.10;4.60;;;16.90;99.90;;;;;;6274992;22;20004;-88
2022/08/17 04:11:34;;;;;;;4.90;4.40;;;16.90;99.90;;;;;;6301975;22;20018;-87
2022/08/17 04:14:01;;;;;;;4.47;4.07;;;16.80;99.90;;;;;;6301850;22;20436;-85
2022/08/17 04:16:27;;;;;;;5.47;4.40;;;16.60;99.90;;;;;;6301961;22;20030;-87
2022/08/17 04:18:53;;;;;;;5.10;4.60;;;16.60;99.90;;;;;;6302043;22;20005;-86
2022/08/17 04:21:20;;;;;;;8.10;4.70;;;16.60;99.90;;;;;;6274404;22;20039;-86
2022/08/17 04:23:46;;;;;;;8.25;4.53;;;16.60;99.90;;;;;;6301590;22;20512;-87
2022/08/17 04:26:13;;;;;;;6.95;4.68;;;16.60;99.90;;;;;;6302532;22;20043;-84
2022/08/17 04:28:43;;;;;;;6.75;4.88;;;16.50;99.90;;;;;;6302567;22;20424;-85
2022/08/17 04:31:13;;;;;;;5.93;4.32;;;16.00;99.90;;;;;;6268400;22;20010;-86
2022/08/17 04:33:41;;;;;;;6.05;4.40;;;16.70;99.90;;;;;;6300026;22;20388;-87
2022/08/17 04:36:07;;;;;;;5.18;4.70;;;16.70;99.90;;;;;;6273578;22;20003;-87
2022/08/17 04:38:36;;;;;;;4.63;4.22;;;16.70;99.90;;;;;;6300811;22;20007;-88
2022/08/17 04:43:49;;;;;;;4.90;4.55;;;16.70;99.90;;;;;;6300794;22;20006;-86
2022/08/17 04:46:17;;;;;;;6.40;4.85;;;16.80;99.90;;;;;;6300800;22;20090;-83
2022/08/17 04:48:45;;;;;;;8.23;4.93;;;16.80;99.90;;;;;;6274669;22;20427;-88
2022/08/17 04:51:17;;;;;;;5.85;5.25;;;15.90;99.90;;;;;;6302103;22;20006;-86
2022/08/17 04:53:45;;;;;;;6.68;5.68;;;16.90;99.90;;;;;;6275073;22;20003;-85
2022/08/17 04:56:14;;;;;;;7.18;4.75;;;16.90;99.90;;;;;;6306155;22;20056;-88
2022/08/17 04:58:44;;;;;;;5.63;5.05;;;17.00;99.90;;;;;;6279212;22;19999;-88
2022/08/17 05:01:10;;;;;;;8.23;5.03;;;17.00;99.90;;;;;;6305481;22;20344;-87
2022/08/17 05:03:36;;;;;;;5.68;5.10;;;17.10;99.90;;;;;;6276746;22;20014;-87
2022/08/17 05:06:01;;;;;;;5.97;5.38;;;17.10;99.90;;;;;;6303909;22;20017;-86
2022/08/17 05:08:27;;;;;;;15.10;6.40;;;17.10;99.90;;;;;;6277062;22;20003;-87
2022/08/17 05:10:53;;;;;;;7.95;6.60;;;17.20;99.90;;;;;;6303998;22;20339;-88
2022/08/17 05:13:24;;;;;;;9.85;6.30;;;17.20;99.90;;;;;;6276394;22;20411;-83
2022/08/17 05:15:54;;;;;;;8.57;6.63;;;17.10;99.90;;;;;;6276866;22;20031;-89
2022/08/17 05:18:20;;;;;;;8.02;5.50;;;17.10;99.90;;;;;;6304236;22;20075;-92
2022/08/17 05:20:46;;;;;;;7.30;6.53;;;17.10;99.90;;;;;;6304371;22;20033;-84
2022/08/17 05:23:15;;;;;;;6.88;6.10;;;17.00;99.90;;;;;;6305003;22;20011;-82
2022/08/17 05:25:45;;;;;;;6.07;5.10;;;16.80;99.90;;;;;;6304495;22;20019;-82
2022/08/17 05:28:11;;;;;;;7.22;5.30;;;16.90;99.90;;;;;;6304536;22;20395;-83
2022/08/17 05:30:38;;;;;;;9.13;5.50;;;16.90;99.90;;;;;;6303716;22;20339;-84
2022/08/17 05:33:10;;;;;;;10.82;5.20;;;17.00;99.90;;;;;;6303597;22;20002;-85
2022/08/17 05:35:41;;;;;;;8.85;5.20;;;17.10;99.90;;;;;;6303809;22;20056;-83
2022/08/17 05:38:07;;;;;;;8.90;5.65;;;17.10;99.90;;;;;;6303722;22;20000;-84
2022/08/17 05:40:33;;;;;;;8.55;5.50;;;17.10;99.90;;;;;;6303543;22;20011;-84
2022/08/17 05:43:13;;;;;;;6.97;6.05;;;17.10;99.90;;;;;;6276049;22;20003;-87
2022/08/17 05:45:43;;;;;;;9.60;6.20;;;17.10;99.90;;;;;;6303401;22;20351;-82
2022/08/17 05:48:09;;;;;;;6.75;5.93;;;17.20;99.90;;;;;;6303569;22;20007;-82
2022/08/17 05:50:54;;;;;;;9.25;5.88;;;17.20;99.90;;;;;;6303594;22;20431;-83
2022/08/17 05:53:46;;;;;;;7.70;5.53;;;17.30;99.90;;;;;;6275946;22;20026;-83
2022/08/17 05:56:18;;;;;;;7.13;6.18;;;17.30;99.90;;;;;;6277431;22;19999;-82
2022/08/17 05:58:59;;;;;;;11.48;6.65;;;17.40;99.90;;;;;;6304854;22;20023;-82
2022/08/17 06:01:47;;;;;;;7.03;6.35;;;17.40;99.90;;;;;;6303488;22;20027;-86
2022/08/17 06:04:39;;;;;;;6.82;6.05;;;17.40;99.90;;;;;;6304495;22;20010;-82
2022/08/17 06:07:24;;;;;;;9.40;6.53;;;17.40;99.90;;;;;;6275557;22;20026;-83
2022/08/17 06:10:08;;;;;;;13.45;6.75;;;17.50;99.90;;;;;;6303562;22;20004;-82
2022/08/17 06:12:54;;;;;;;12.52;7.10;;;17.50;99.90;;;;;;6303208;22;20006;-83
2022/08/17 06:15:46;;;;;;;10.18;7.30;;;17.40;99.90;;;;;;6303405;22;20393;-82
2022/08/17 06:18:12;;;;;;;10.57;7.28;;;17.50;99.90;;;;;;6303363;22;20031;-87
2022/08/17 06:20:50;;;;;;;8.85;7.88;;;17.40;99.90;;;;;;6275667;22;20597;-82
2022/08/17 06:23:43;;;;;;;10.93;7.35;;;17.40;99.90;;;;;;6304308;22;20002;-82
2022/08/17 06:26:23;;;;;;;9.57;6.78;;;17.20;99.90;;;;;;6298954;22;20026;-82
2022/08/17 06:29:16;;;;;;;6.60;5.90;;;16.90;99.90;;;;;;6303318;22;19995;-82
2022/08/17 06:31:42;;;;;;;8.32;6.50;;;17.20;99.90;;;;;;6303117;22;20011;-84
2022/08/17 06:34:10;;;;;;;7.68;6.32;;;17.30;99.90;;;;;;6303430;22;19999;-81
2022/08/17 06:36:51;;;;;;;11.70;6.10;;;17.40;99.90;;;;;;6303068;22;20003;-83
2022/08/17 06:39:20;;;;;;;8.48;6.68;;;17.50;99.90;;;;;;6304098;22;19999;-82
2022/08/17 06:42:13;;;;;;;10.05;7.00;;;17.60;99.90;;;;;;6304080;22;20006;-84
2022/08/17 06:44:51;;;;;;;8.55;6.80;;;17.60;99.90;;;;;;6303047;22;20305;-82
2022/08/17 06:47:55;;;;;;;8.35;6.85;;;16.70;99.90;;;;;;6304004;22;20008;-85
2022/08/17 06:50:23;;;;;;;8.80;7.70;;;17.60;99.90;;;;;;6178183;23;20019;-83
2022/08/17 06:53:07;;;;;;;;;;;17.60;99.90;;;;;;6179967;23;20009;-86
2022/08/17 06:55:45;;;;;;;11.98;7.65;;;17.70;99.90;;;;;;6253529;22;19987;-89
2022/08/17 06:58:19;;;;;;;9.18;7.03;;;17.70;99.90;;;;;;6302848;22;20393;-84
2022/08/17 07:00:47;;;;;;;8.40;6.88;;;17.70;99.90;;;;;;6303771;22;20497;-82
2022/08/17 07:03:36;;;;;;;9.00;7.23;;;17.60;99.90;;;;;;6302926;22;20086;-84
2022/08/17 07:06:10;;;;;;;9.07;6.88;;;17.60;99.90;;;;;;6275262;22;20007;-83
2022/08/17 07:08:37;;;;;;;8.52;7.00;;;17.60;99.90;;;;;;6302900;22;20003;-89
2022/08/17 07:11:08;;;;;;;8.65;7.07;;;17.60;99.90;;;;;;6302567;22;20064;-82
2022/08/17 07:14:04;;;;;;;10.15;7.63;;;16.80;99.90;;;;;;6302853;22;20003;-84
2022/08/17 07:16:48;;;;;;;7.63;6.93;;;17.50;99.90;;;;;;6302802;22;20010;-83
2022/08/17 07:19:17;;;;;;;8.00;6.15;;;17.60;99.90;;;;;;6275616;22;20461;-84
2022/08/17 07:22:01;;;;;;;9.15;7.65;;;17.80;99.90;;;;;;6275019;22;20093;-83
2022/08/17 07:24:50;;;;;;;7.75;6.97;;;17.80;99.90;;;;;;6274939;22;20213;-82
2022/08/17 07:27:19;;;;;;;8.38;6.80;;;17.90;99.90;;;;;;6302646;22;20007;-84
2022/08/17 07:29:53;;;;;;;11.45;7.93;;;18.20;99.90;;;;;;6302529;22;20074;-83
2022/08/17 07:32:50;;;;;;;12.38;7.60;;;18.30;99.90;;;;;;6303980;22;20003;-84
2022/08/17 07:35:28;;;;;;;10.15;8.50;;;18.20;99.90;;;;;;6292572;22;19999;-86
2022/08/17 07:38:19;;;;;;;12.70;8.32;;;18.00;99.90;;;;;;6303404;22;20010;-83
2022/08/17 07:40:56;;;;;;;10.98;8.05;;;18.30;99.90;;;;;;6302580;22;19999;-83
2022/08/17 07:43:30;;;;;;;10.20;8.40;;;18.30;99.90;;;;;;6303729;22;20029;-83
2022/08/17 07:48:53;;;;;;;9.40;7.10;;;18.40;99.90;;;;;;6302799;22;20056;-90
2022/08/17 07:51:31;;;;;;;11.00;5.95;;;18.60;99.90;;;;;;6304022;22;19999;-86
2022/08/17 07:54:20;;;;;;;6.82;5.88;;;18.60;99.90;;;;;;6303003;22;20006;-89
2022/08/17 07:56:55;;;;;;;7.30;6.20;;;18.60;99.90;;;;;;6302406;22;20000;-90
2022/08/17 07:59:28;;;;;;;9.45;7.53;;;18.60;99.90;;;;;;6303660;22;20439;-88
2022/08/17 08:01:59;;;;;;;9.55;5.88;;;18.80;99.90;;;;;;6302933;22;20000;-88
2022/08/17 08:04:33;;;;;;;5.28;4.53;;;18.50;99.90;;;;;;6302455;22;20498;-88
2022/08/17 08:07:01;;;;;;;5.85;4.35;;;18.70;99.90;;;;;;6302345;22;20009;-87
2022/08/17 08:09:37;;;;;;;6.28;4.50;;;18.70;99.90;;;;;;6302192;22;20068;-83
2022/08/17 08:12:32;;;;;;;7.75;5.30;;;18.90;99.90;;;;;;6302734;22;20068;-84
2022/08/17 08:15:08;;;;;;;5.72;5.15;;;19.10;99.90;;;;;;6302321;22;20003;-90
2022/08/17 08:17:44;;;;;;;7.78;5.35;;;19.20;99.90;;;;;;6302337;22;20003;-84
2022/08/17 08:20:10;;;;;;;5.82;5.25;;;19.40;99.90;;;;;;6302125;22;20005;-89
2022/08/17 08:22:56;;;;;;;5.45;3.92;;;19.20;99.90;;;;;;6274925;22;20453;-82
2022/08/17 08:25:42;;;;;;;3.33;2.92;;;19.20;99.90;;;;;;6303408;22;20007;-89
2022/08/17 08:28:26;;;;;;;3.42;2.70;;;19.00;99.90;;;;;;6302262;22;19996;-89
2022/08/17 08:31:05;;;;;;;5.72;3.10;;;19.10;99.90;;;;;;6276691;22;20402;-88
2022/08/17 08:34:08;;;;;;;3.58;2.80;;;19.00;99.90;;;;;;6276977;22;19999;-87
2022/08/17 08:36:38;;;;;;;5.30;3.47;;;19.00;99.90;;;;;;6304215;22;19999;-83
2022/08/17 08:39:36;;;;;;;5.15;3.38;;;18.80;99.90;;;;;;6304419;22;20462;-88
2022/08/17 08:42:12;;;;;;;;;;;18.80;99.90;;;;;;6304886;22;20477;-90
2022/08/17 08:44:54;;;;;;;5.57;3.60;;;18.90;99.90;;;;;;6304092;22;19903;-89
2022/08/17 08:48:09;;;;;;;4.38;3.85;;;18.90;99.90;;;;;;6304416;22;19999;-90
2022/08/17 08:50:36;;;;;;;5.88;3.90;;;18.90;99.90;;;;;;6246447;22;20381;-87
2022/08/17 08:53:02;;;;;;;4.78;4.30;;;18.90;99.90;;;;;;6276604;22;19999;-89
2022/08/17 08:55:36;;;;;;;4.53;4.00;;;18.80;99.90;;;;;;6303936;22;20005;-82
2022/08/17 08:58:08;;;;;;;6.22;4.40;;;18.80;99.90;;;;;;6277014;22;20472;-90
2022/08/17 09:00:42;;;;;;;7.20;4.43;;;18.90;99.90;;;;;;6304226;22;20023;-88
2022/08/17 09:03:23;;;;;;;5.18;4.15;;;19.00;99.90;;;;;;6304017;22;20003;-82
2022/08/17 09:06:06;;;;;;;4.70;4.30;;;19.00;99.90;;;;;;6276247;22;20011;-84
2022/08/17 09:08:54;;;;;;;6.35;4.78;;;19.00;99.90;;;;;;6304113;22;20000;-90
2022/08/17 09:11:34;;;;;;;6.80;4.75;;;19.00;99.90;;;;;;6303903;22;19999;-86
2022/08/17 09:14:24;;;;;;;12.98;4.78;;;19.00;99.90;;;;;;6303967;22;20006;-84
2022/08/17 09:17:05;;;;;;;6.90;4.93;;;18.90;99.90;;;;;;6303974;22;20004;-90
2022/08/17 09:19:34;;;;;;;5.40;4.72;;;18.70;99.90;;;;;;6276460;22;20439;-82
2022/08/17 09:22:10;;;;;;;9.48;4.85;;;18.70;99.90;;;;;;6276494;22;20026;-82
2022/08/17 09:24:46;;;;;;;7.63;5.95;;;18.80;99.90;;;;;;6303552;22;20443;-89
2022/08/17 09:27:22;;;;;;;7.97;4.90;;;18.80;99.90;;;;;;6304096;22;20000;-89
2022/08/17 09:29:52;;;;;;;10.38;5.00;;;18.80;99.90;;;;;;6304081;22;20238;-89
2022/08/17 09:32:30;;;;;;;5.57;4.90;;;18.80;99.90;;;;;;6303917;22;20208;-82
2022/08/17 09:35:01;;;;;;;6.93;4.80;;;18.70;99.90;;;;;;6304719;22;20007;-90
2022/08/17 09:37:42;;;;;;;5.68;4.80;;;18.60;99.90;;;;;;6305007;22;20053;-82
2022/08/17 09:40:19;;;;;;;8.10;4.47;;;18.80;99.90;;;;;;6303732;22;20075;-89
2022/08/17 09:42:57;;;;;;;5.57;4.70;;;18.70;99.90;;;;;;6275429;22;20010;-82
2022/08/17 09:45:45;;;;;;;9.52;4.68;;;18.60;99.90;;;;;;6303575;22;20065;-90
2022/08/17 09:48:13;;;;;;;;;;;18.50;99.90;;;;;;6304189;22;20444;-83
2022/08/17 09:51:07;;;;;;;7.18;4.50;;;18.40;99.90;;;;;;6303590;22;20323;-89
2022/08/17 09:53:38;;;;;;;8.13;3.65;;;18.30;99.90;;;;;;6303605;22;20003;-82
2022/08/17 09:56:31;;;;;;;4.90;4.28;;;18.30;99.90;;;;;;6303854;22;20007;-83
2022/08/17 09:59:28;;;;;;;4.75;3.63;;;18.20;99.90;;;;;;6304602;22;19999;-91
2022/08/17 10:02:17;;;;;;;7.20;3.70;;;18.30;99.90;;;;;;6303416;22;19999;-83
2022/08/17 10:05:02;;;;;;;6.75;4.20;;;18.30;99.90;;;;;;6303665;22;20175;-83
2022/08/17 10:07:40;;;;;;;6.43;4.22;;;18.30;99.90;;;;;;6304164;22;20018;-82
2022/08/17 10:10:16;;;;;;;6.30;4.30;;;18.20;99.90;;;;;;6304033;22;19999;-82
2022/08/17 10:13:04;;;;;;;5.47;4.18;;;18.10;99.90;;;;;;6309500;22;20006;-86
2022/08/17 10:15:38;;;;;;;7.18;3.83;;;18.10;99.90;;;;;;6314809;22;19999;-86
2022/08/17 10:18:23;;;;;;;7.43;4.53;;;18.20;99.90;;;;;;6318670;22;20003;-82
2022/08/17 10:27:22;;;;;;;4.97;4.30;;;18.40;99.90;;;;;;6302963;22;20061;-89
2022/08/17 10:29:55;;;;;;;7.00;4.40;;;18.30;99.90;;;;;;6275858;22;20384;-89
2022/08/17 10:32:47;;;;;;;5.78;4.90;;;18.40;99.90;;;;;;6275612;22;20797;-88
2022/08/17 10:35:28;;;;;;;4.78;4.28;;;18.40;99.90;;;;;;6286500;22;20064;-90
2022/08/17 10:38:28;;;;;;;5.57;4.97;;;18.50;99.90;;;;;;6303213;22;20466;-83
2022/08/17 10:41:13;;;;;;;7.85;4.80;;;18.60;99.90;;;;;;6303104;22;20049;-84
2022/08/17 10:44:02;;;;;;;5.60;4.40;;;18.70;99.90;;;;;;6302863;22;20003;-89
2022/08/17 10:46:45;;;;;;;8.48;5.00;;;18.70;99.90;;;;;;6247237;22;20011;-87
2022/08/17 10:49:16;;;;;;;9.60;5.47;;;18.70;99.90;;;;;;6275634;22;20094;-90
2022/08/17 10:51:44;;;;;;;6.40;5.72;;;18.60;99.90;;;;;;6302821;22;20003;-88
2022/08/17 10:54:39;;;;;;;;;;;18.50;99.90;;;;;;6303193;22;19995;-85
2022/08/17 10:57:26;;;;;;;6.70;5.78;;;18.50;99.90;;;;;;6276518;22;20311;-82
2022/08/17 10:59:54;;;;;;;6.65;5.88;;;18.60;99.90;;;;;;6302794;22;20027;-82
2022/08/17 11:02:46;;;;;;;8.90;5.35;;;18.60;99.90;;;;;;6302870;22;20103;-89
2022/08/17 11:05:27;;;;;;;7.90;5.45;;;18.50;99.90;;;;;;6302853;22;20011;-85
2022/08/17 11:08:20;;;;;;;6.13;5.53;;;18.60;99.90;;;;;;6302919;22;19995;-82
2022/08/17 11:11:13;;;;;;;8.27;5.97;;;18.70;99.90;;;;;;6302723;22;20108;-82
2022/08/17 11:14:05;;;;;;;8.05;6.30;;;18.80;99.90;;;;;;6275140;22;20003;-82
2022/08/17 11:16:41;;;;;;;10.75;6.18;;;18.80;99.90;;;;;;6303689;22;19999;-82
2022/08/17 11:19:25;;;;;;;9.07;6.18;;;18.90;99.90;;;;;;6302695;22;19995;-82
2022/08/17 11:22:05;;;;;;;8.20;6.63;;;19.00;99.90;;;;;;6302820;22;19999;-88
2022/08/17 11:24:50;;;;;;;10.40;5.95;;;19.10;99.90;;;;;;6303732;22;20027;-84
2022/08/17 11:27:25;;;;;;;6.75;5.90;;;19.10;99.90;;;;;;6302570;22;20510;-83
2022/08/17 11:30:00;;;;;;;7.30;5.90;;;19.30;99.90;;;;;;6302885;22;20013;-85
2022/08/17 11:32:44;;;;;;;7.07;5.38;;;19.40;99.90;;;;;;6302480;22;20028;-83
2022/08/17 11:35:21;;;;;;;6.40;4.43;;;19.40;99.90;;;;;;6302644;22;19999;-82
2022/08/17 11:38:06;;;;;;;6.50;4.05;;;19.70;99.90;;;;;;6275024;22;20008;-86
2022/08/17 11:40:51;;;;;;;3.65;2.60;;;19.80;99.90;;;;;;6276175;22;20011;-82
2022/08/17 11:43:44;;;;;;;3.05;2.60;;;19.60;99.90;;;;;;6302377;22;20000;-82
2022/08/17 11:51:32;;;;;;;4.05;2.10;;;19.90;99.90;;;;;;6274713;22;20011;-82
2022/08/17 11:52:34;;;;;;;5.22;2.40;;;19.70;99.90;;;;;;6302236;22;20026;-83
2022/08/17 11:55:01;;;;;;;4.00;2.70;;;19.70;99.90;;;;;;6302499;22;20100;-82
2022/08/17 11:57:26;;;;;;;3.42;2.55;;;19.80;99.90;;;;;;6302302;22;20057;-81
2022/08/17 12:00:09;;;;;;;3.80;2.60;;;19.80;99.90;;;;;;6302314;22;20003;-89
2022/08/17 12:02:42;;;;;;;6.28;2.50;;;20.00;99.90;;;;;;6303391;22;19999;-83
2022/08/17 12:05:13;;;;;;;3.90;2.35;;;20.10;99.90;;;;;;6301740;22;20016;-82
2022/08/17 12:07:52;;;;;;;2.92;2.05;;;20.20;99.90;;;;;;6302246;22;20344;-82
2022/08/17 12:10:30;;;;;;;3.53;2.00;;;20.30;99.90;;;;;;6302439;22;19999;-82
2022/08/17 12:12:58;;;;;;;2.30;2.10;;;20.40;99.90;;;;;;6302291;22;19996;-82
2022/08/17 12:15:34;;;;;;;6.63;1.90;;;20.50;99.90;;;;;;6302037;22;20010;-82
2022/08/17 12:18:00;;;;;;;2.42;1.80;;;;;;;;;;6302346;22;20045;-82
2022/08/17 12:20:32;;;;;;;2.45;1.63;;;20.80;99.90;;;;;;6302214;22;20004;-81
2022/08/17 12:23:19;;;;;;;1.92;1.83;;;21.00;99.90;;;;;;6302296;22;20003;-81
2022/08/17 12:25:58;;;;;;;1.67;1.58;;;21.20;99.90;;;;;;6302028;22;20011;-82
2022/08/17 12:28:27;;;;;;;1.75;1.60;;;21.10;99.90;;;;;;6302368;22;20007;-82
2022/08/17 12:30:55;;;;;;;6.70;1.70;;;21.00;99.90;;;;;;6274910;22;20082;-87
2022/08/17 12:33:24;;;;;;;6.75;1.80;;;21.10;99.90;;;;;;6302066;22;20007;-82
2022/08/17 12:36:03;;;;;;;3.42;2.53;;;21.10;99.90;;;;;;6301972;22;20000;-81
2022/08/17 12:38:34;;;;;;;4.85;2.80;;;21.10;99.90;;;;;;6301898;22;20090;-81
2022/08/17 12:44:08;;;;;;;5.57;2.80;;;20.90;99.90;;;;;;6302003;22;20014;-82
2022/08/17 12:47:00;;;;;;;4.00;3.00;;;20.80;99.90;;;;;;6302967;22;20011;-82
2022/08/17 12:49:34;;;;;;;6.28;4.03;;;21.00;99.90;;;;;;6301945;22;20031;-81
2022/08/17 12:52:25;;;;;;;5.47;4.45;;;20.70;99.90;;;;;;6302162;22;20003;-82
2022/08/17 12:55:19;;;;;;;6.00;4.07;;;20.60;99.90;;;;;;6274645;22;20466;-89
2022/08/17 12:57:50;;;;;;;4.55;3.90;;;20.70;99.90;;;;;;6303060;22;20439;-81
2022/08/17 13:00:26;;;;;;;7.28;3.92;;;20.80;99.90;;;;;;6304819;22;20027;-82
2022/08/17 13:02:57;;;;;;;6.45;4.60;;;20.80;99.90;;;;;;6305106;22;19991;-82
2022/08/17 13:05:33;;;;;;;5.53;4.00;;;20.80;99.90;;;;;;6302101;22;20011;-88
2022/08/17 13:08:22;;;;;;;5.38;4.30;;;20.90;99.90;;;;;;6301750;22;20023;-82
2022/08/17 13:10:57;;;;;;;6.78;4.13;;;21.00;99.90;;;;;;6301547;22;20003;-81
2022/08/17 13:13:26;;;;;;;4.35;3.95;;;21.00;99.90;;;;;;6274607;22;20064;-88
2022/08/17 13:15:58;;;;;;;7.70;3.90;;;21.00;99.90;;;;;;6302026;22;20008;-88
2022/08/17 13:18:37;;;;;;;4.63;4.22;;;20.90;99.90;;;;;;6303678;22;20156;-82
2022/08/17 13:21:04;;;;;;;9.02;4.25;;;21.00;99.90;;;;;;6303706;22;20482;-81
2022/08/17 13:23:30;;;;;;;4.15;3.53;;;20.90;99.90;;;;;;6303777;22;20074;-81
2022/08/17 13:26:06;;;;;;;3.88;3.35;;;21.00;99.90;;;;;;6303528;22;20050;-82
2022/08/17 13:28:34;;;;;;;3.50;3.20;;;21.00;99.90;;;;;;6303897;22;20432;-81
2022/08/17 13:31:26;;;;;;;3.80;3.03;;;21.00;99.90;;;;;;6303797;22;20006;-88
2022/08/17 13:34:11;;;;;;;6.00;2.55;;;21.10;99.90;;;;;;6303701;22;19999;-89
2022/08/17 13:36:37;;;;;;;5.00;2.42;;;20.90;99.90;;;;;;6304498;22;20435;-87
2022/08/17 13:39:22;;;;;;;2.92;2.30;;;21.30;99.90;;;;;;6303747;22;20449;-81
2022/08/17 13:41:50;;;;;;;2.65;2.42;;;21.40;99.90;;;;;;6303742;22;20074;-81
2022/08/17 13:44:29;;;;;;;;;;;21.40;99.90;;;;;;6303963;22;20006;-82
2022/08/17 13:46:55;;;;;;;2.40;2.17;;;21.40;99.90;;;;;;6276073;22;19902;-81
2022/08/17 13:49:21;;;;;;;4.78;2.00;;;21.40;99.90;;;;;;6303747;22;20508;-82
2022/08/17 13:51:51;;;;;;;3.80;1.83;;;21.50;99.90;;;;;;6303532;22;20038;-89